Portada
METAR-TAF:

METAR-TAF

Aeroports :

Al-Kharj, Aràbia Saudita

latitud: 24-03-19N, longitud: 047-33-49E, altitud: 503 m

Observació

L'informe es va fer fa 27 minuts, a les 06:00 UTC
Vent 5 kt del Nord/Nord-Oest
Temperatura 34°C
Humitat 9%
Pressió 1015 hPa
Visibilitat 10 km o més
sense núvols per sota de 1500 mi sense presència de cumulonimbus.

METAR: OEKJ 080600Z 34005KT CAVOK 34/M03 Q1015

Hora: 09:27 (06:27 UTC)

Pronòstic

L'informe es va fer fa 7 hores i 27 minuts, a les 23:00 UTC
Pronòstic vàlid del 08 a les 00 UTC al 09 a les 06 UTC
Vent 6 kt del Sud
Visibilitat: 7000 m
Escasses núvols a una alçada de 4000 ft
Evolucionant progressivament
l' 08 a les 08 UTC al 08 a les 10 UTC
Vent 14 kt del Oest/Nord-Oest
Evolucionant progressivament
l' 08 a les 18 UTC al 08 a les 20 UTC
Vent 8 kt del Est/Nord-Est

TAF: OEKJ 072300Z 0800/0906 18006KT 7000 FEW040 BECMG 0808/0810 30014KT BECMG 0818/0820 06008KT

Observacions i pronòstics meteorològics de més de 4000 aeroports (METAR i TAF).

Les estacions disponibles són els punts grocs i vermells al mapa.

Posi el ratolí al punt desitjat per veure el nom de l'estació.

Feu clic per veure les observacions i els pronòstics meteorològics.

Per canviar el mapa: feu clic els botons verds amb una creu de color negre per apropar; al botó verd amb un guió per allunyar la imatge; o en les fletxes verdes per a mapes adjacents.


METAR-TAF: